Time;durP1;ratioP1;P1;durP2;ratioP2;P2;SDS_P1;SDS_P2;PMS_P1;PMS_P2;Temp;Humidity;BMP_temperature;BMP_pressure;BME280_temperature;BME280_humidity;BME280_pressure;Samples;Min_cycle;Max_cycle;Signal;HPM_P1;HPM_P2
2024/03/06 00:03:46;;;;;;;10.87;9.83;;;10.90;42.70;;;;;;10379364;28;20233;-70
2024/03/06 00:08:49;;;;;;;11.67;10.53;;;10.90;42.30;;;;;;10383418;28;20312;-70
2024/03/06 00:13:53;;;;;;;11.30;10.27;;;11.00;42.50;;;;;;10394416;28;20231;-70
2024/03/06 00:18:56;;;;;;;11.90;10.80;;;11.00;42.60;;;;;;10389208;28;20240;-70
2024/03/06 00:23:59;;;;;;;12.83;11.63;;;11.00;42.20;;;;;;10386094;28;20234;-70
2024/03/06 00:29:05;;;;;;;12.47;11.27;;;11.00;42.30;;;;;;10390658;28;20360;-69
2024/03/06 00:34:09;;;;;;;12.47;11.17;;;11.00;42.50;;;;;;10385932;28;20226;-70
2024/03/06 00:39:14;;;;;;;13.10;11.80;;;11.00;42.40;;;;;;10389468;28;20229;-70
2024/03/06 00:44:19;;;;;;;13.30;11.80;;;11.00;42.40;;;;;;10389673;28;20242;-70
2024/03/06 00:49:22;;;;;;;13.50;12.20;;;11.00;42.70;;;;;;10381919;28;20741;-70
2024/03/06 00:54:25;;;;;;;13.57;12.23;;;11.00;42.40;;;;;;10385572;28;20715;-70
2024/03/06 00:59:29;;;;;;;14.53;12.53;;;11.00;42.50;;;;;;10384414;28;20599;-70
2024/03/06 01:04:32;;;;;;;15.20;13.63;;;11.00;42.70;;;;;;10386052;28;20236;-70
2024/03/06 01:09:36;;;;;;;13.80;12.40;;;11.00;42.50;;;;;;10387508;28;20287;-70
2024/03/06 01:14:40;;;;;;;15.43;13.60;;;10.90;42.50;;;;;;10385527;28;20222;-70
2024/03/06 01:19:44;;;;;;;14.83;13.30;;;10.90;42.80;;;;;;10386463;28;20236;-70
2024/03/06 01:24:48;;;;;;;15.80;14.10;;;10.90;42.50;;;;;;10384717;28;20286;-70
2024/03/06 01:29:53;;;;;;;15.03;13.50;;;10.90;42.50;;;;;;10388383;28;20271;-70
2024/03/06 01:34:57;;;;;;;15.43;13.83;;;10.90;42.80;;;;;;10384017;28;20230;-70
2024/03/06 01:40:00;;;;;;;15.60;13.90;;;10.90;42.60;;;;;;10385501;28;20316;-70
2024/03/06 01:45:05;;;;;;;15.87;14.07;;;10.80;42.60;;;;;;10383472;28;20699;-70
2024/03/06 01:50:10;;;;;;;15.47;13.87;;;10.80;43.00;;;;;;10381555;28;20234;-70
2024/03/06 01:55:15;;;;;;;15.90;14.23;;;10.80;42.90;;;;;;10387748;28;20256;-70
2024/03/06 02:00:20;;;;;;;15.57;13.97;;;10.80;42.90;;;;;;10381435;28;20237;-70
2024/03/06 02:05:24;;;;;;;16.33;14.50;;;10.80;43.00;;;;;;10381271;28;20322;-70
2024/03/06 02:10:27;;;;;;;16.50;14.80;;;10.80;42.90;;;;;;10384144;28;20237;-70
2024/03/06 02:15:32;;;;;;;14.83;13.33;;;10.70;42.90;;;;;;10386130;28;20241;-70
2024/03/06 02:20:39;;;;;;;15.53;13.93;;;10.70;43.80;;;;;;10380074;28;20636;-70
2024/03/06 02:25:43;;;;;;;15.97;14.33;;;10.70;43.50;;;;;;10382656;28;20234;-70
2024/03/06 02:30:50;;;;;;;15.13;13.53;;;10.70;42.90;;;;;;10384599;28;20248;-70
2024/03/06 02:35:55;;;;;;;16.83;15.03;;;10.70;42.80;;;;;;10382626;28;20225;-70
2024/03/06 02:40:58;;;;;;;16.13;14.43;;;10.70;43.00;;;;;;10382175;28;20229;-70
2024/03/06 02:46:01;;;;;;;15.53;13.77;;;10.70;42.80;;;;;;10385807;28;20245;-70
2024/03/06 02:51:06;;;;;;;16.70;14.87;;;10.70;42.80;;;;;;10382735;28;20242;-70
2024/03/06 02:56:09;;;;;;;17.20;14.93;;;10.70;43.10;;;;;;10384390;28;20250;-70
2024/03/06 03:01:12;;;;;;;16.77;14.97;;;10.70;42.90;;;;;;10382041;28;20638;-70
2024/03/06 03:06:17;;;;;;;16.60;14.80;;;10.60;43.00;;;;;;10385529;28;20229;-70
2024/03/06 03:11:21;;;;;;;16.17;14.43;;;10.60;43.30;;;;;;10380571;28;20670;-70
2024/03/06 03:16:24;;;;;;;16.60;14.80;;;10.60;43.20;;;;;;10383499;28;20307;-70
2024/03/06 03:21:29;;;;;;;16.40;14.03;;;10.60;43.20;;;;;;10384322;28;20232;-70
2024/03/06 03:26:32;;;;;;;16.20;14.50;;;10.50;43.40;;;;;;10383912;28;20229;-70
2024/03/06 03:31:36;;;;;;;15.83;13.90;;;10.50;43.10;;;;;;10381792;28;20233;-70
2024/03/06 03:36:43;;;;;;;13.73;12.33;;;10.50;43.80;;;;;;10383094;28;20233;-70
2024/03/06 03:41:46;;;;;;;15.87;14.17;;;10.60;43.60;;;;;;10383069;28;20318;-70
2024/03/06 03:46:49;;;;;;;15.53;13.83;;;10.60;43.10;;;;;;10383686;28;20237;-70
2024/03/06 03:51:54;;;;;;;14.93;13.40;;;10.60;43.10;;;;;;10391808;28;20225;-70
2024/03/06 03:56:59;;;;;;;15.70;14.03;;;10.60;43.20;;;;;;10392688;28;20256;-70
2024/03/06 04:02:02;;;;;;;15.90;14.07;;;10.60;43.10;;;;;;10389812;28;20779;-70
2024/03/06 04:07:06;;;;;;;16.27;14.57;;;10.70;43.10;;;;;;10389048;28;20428;-70
2024/03/06 04:12:10;;;;;;;15.90;14.20;;;10.70;43.20;;;;;;10387354;28;20221;-70
2024/03/06 04:17:14;;;;;;;15.90;14.00;;;10.80;43.10;;;;;;10391155;28;20221;-70
2024/03/06 04:22:22;;;;;;;16.27;14.13;;;10.80;43.00;;;;;;10392787;28;20228;-70
2024/03/06 04:27:25;;;;;;;15.67;14.00;;;10.80;43.30;;;;;;10386499;28;20236;-70
2024/03/06 04:32:28;;;;;;;17.13;14.50;;;10.80;42.80;;;;;;10391083;28;20233;-70
2024/03/06 04:37:33;;;;;;;17.20;14.83;;;10.80;42.90;;;;;;10390943;28;20241;-70
2024/03/06 04:42:37;;;;;;;16.97;15.17;;;10.80;43.00;;;;;;10387996;28;20226;-70
2024/03/06 04:47:40;;;;;;;15.73;14.07;;;10.80;42.80;;;;;;10353742;28;20326;-70
2024/03/06 04:52:45;;;;;;;17.50;15.03;;;10.80;42.80;;;;;;10351489;28;20317;-70
2024/03/06 04:57:49;;;;;;;15.60;14.00;;;10.80;43.10;;;;;;10344811;28;20646;-70
2024/03/06 05:02:53;;;;;;;16.27;14.67;;;10.70;42.80;;;;;;10346891;28;20234;-70
2024/03/06 05:08:15;;;;;;;16.70;14.83;;;10.70;42.90;;;;;;10357891;28;20316;-70
2024/03/06 05:13:36;;;;;;;16.00;14.30;;;10.70;43.20;;;;;;10351318;28;20684;-70
2024/03/06 05:18:57;;;;;;;16.67;14.47;;;10.70;43.00;;;;;;10349278;28;20242;-70
2024/03/06 05:24:19;;;;;;;17.17;14.73;;;10.70;43.10;;;;;;10353143;28;20226;-70
2024/03/06 05:29:39;;;;;;;16.10;14.03;;;10.60;43.30;;;;;;10348294;28;20252;-70
2024/03/06 05:35:00;;;;;;;17.23;15.33;;;10.60;43.10;;;;;;10341934;28;20222;-70
2024/03/06 05:40:23;;;;;;;14.73;13.23;;;10.60;43.20;;;;;;10337980;28;20701;-70
2024/03/06 05:45:44;;;;;;;16.93;14.00;;;10.60;43.50;;;;;;10353590;28;20716;-71
2024/03/06 05:51:07;;;;;;;15.47;13.87;;;10.70;43.30;;;;;;10371717;28;20680;-70
2024/03/06 05:56:29;;;;;;;15.03;13.23;;;10.70;43.50;;;;;;10344922;28;20231;-70
2024/03/06 06:01:49;;;;;;;15.37;13.73;;;10.80;43.50;;;;;;10340502;28;20234;-70
2024/03/06 06:06:53;;;;;;;16.07;13.70;;;10.80;43.40;;;;;;10346290;28;20238;-70
2024/03/06 06:11:57;;;;;;;17.30;14.50;;;10.80;43.40;;;;;;10343105;28;20373;-70
2024/03/06 06:17:01;;;;;;;15.03;13.43;;;10.80;43.60;;;;;;10342636;28;20378;-71
2024/03/06 06:22:06;;;;;;;18.20;14.40;;;10.80;43.30;;;;;;10384321;28;20228;-70
2024/03/06 06:27:11;;;;;;;15.33;13.73;;;10.90;43.40;;;;;;10343592;28;20241;-70
2024/03/06 06:32:14;;;;;;;15.10;13.50;;;10.90;43.70;;;;;;10348894;28;20238;-70
2024/03/06 06:37:19;;;;;;;14.40;12.90;;;10.80;43.30;;;;;;10372305;28;20324;-69
2024/03/06 06:42:24;;;;;;;14.03;12.50;;;10.90;43.40;;;;;;10379235;28;20254;-69
2024/03/06 06:47:28;;;;;;;14.37;12.70;;;10.90;43.60;;;;;;10346311;28;20222;-69
2024/03/06 06:52:33;;;;;;;13.10;11.67;;;10.90;43.50;;;;;;10344047;28;20317;-69
2024/03/06 06:57:38;;;;;;;14.57;12.97;;;10.90;43.50;;;;;;10342298;28;20276;-69
2024/03/06 07:02:41;;;;;;;14.40;12.17;;;10.90;43.70;;;;;;10358514;28;20233;-69
2024/03/06 07:07:45;;;;;;;13.70;12.20;;;10.90;43.60;;;;;;10380849;28;20931;-69
2024/03/06 07:12:49;;;;;;;14.60;12.83;;;11.00;43.70;;;;;;10385847;28;20312;-69
2024/03/06 07:17:52;;;;;;;15.63;13.40;;;11.00;43.80;;;;;;10387680;28;20599;-69
2024/03/06 07:22:56;;;;;;;16.73;14.27;;;11.00;43.50;;;;;;10384094;28;20249;-69
2024/03/06 07:28:00;;;;;;;15.47;13.70;;;11.00;43.70;;;;;;10386725;28;20323;-70
2024/03/06 07:33:04;;;;;;;15.73;13.70;;;11.00;43.90;;;;;;10389961;28;20312;-69
2024/03/06 07:38:07;;;;;;;18.83;15.37;;;11.00;43.60;;;;;;10382937;28;20229;-69
2024/03/06 07:43:14;;;;;;;17.33;15.33;;;11.00;43.60;;;;;;10383690;28;20317;-70
2024/03/06 07:48:17;;;;;;;18.13;15.30;;;11.10;43.90;;;;;;10380599;28;20367;-71
2024/03/06 07:53:20;;;;;;;18.20;15.00;;;11.10;43.60;;;;;;10356860;28;20230;-71
2024/03/06 07:58:25;;;;;;;18.43;15.40;;;11.10;43.60;;;;;;10346200;28;20237;-71
2024/03/06 08:03:28;;;;;;;17.90;15.30;;;11.10;43.90;;;;;;10374617;28;20240;-71
2024/03/06 08:08:31;;;;;;;18.47;15.53;;;11.20;43.70;;;;;;10386323;28;20230;-71
2024/03/06 08:13:37;;;;;;;18.57;14.77;;;11.20;43.80;;;;;;10387293;28;20230;-71
2024/03/06 08:18:40;;;;;;;19.97;15.30;;;11.20;43.80;;;;;;10381467;28;20305;-71
2024/03/06 08:23:44;;;;;;;20.87;15.80;;;11.20;43.60;;;;;;10382316;28;20309;-71
2024/03/06 08:28:50;;;;;;;16.83;14.70;;;11.20;43.70;;;;;;10382357;28;20234;-70
2024/03/06 08:33:54;;;;;;;19.70;15.83;;;11.30;43.80;;;;;;10387908;28;21554;-71
2024/03/06 08:38:57;;;;;;;20.30;15.93;;;11.30;43.80;;;;;;10390883;28;20233;-70
2024/03/06 08:44:02;;;;;;;20.27;16.33;;;11.30;43.60;;;;;;10389941;28;20254;-71
2024/03/06 08:49:05;;;;;;;21.13;16.13;;;11.40;43.70;;;;;;10388455;28;20718;-71
2024/03/06 08:54:12;;;;;;;19.93;16.20;;;11.40;43.50;;;;;;10389271;28;20229;-71
2024/03/06 08:59:18;;;;;;;20.97;17.03;;;11.40;43.40;;;;;;10391905;28;20703;-71
2024/03/06 09:04:21;;;;;;;20.37;16.57;;;11.40;43.60;;;;;;10387309;28;26398;-71
2024/03/06 09:09:24;;;;;;;19.73;16.90;;;11.40;43.50;;;;;;10387660;28;20230;-71
2024/03/06 09:14:29;;;;;;;21.13;16.63;;;11.40;43.50;;;;;;10386691;28;20218;-71
2024/03/06 09:19:33;;;;;;;19.03;16.33;;;11.50;43.70;;;;;;10389945;28;20333;-71
2024/03/06 09:24:37;;;;;;;23.73;16.87;;;11.50;43.70;;;;;;10388296;28;20305;-71
2024/03/06 09:29:42;;;;;;;21.33;16.60;;;11.50;43.70;;;;;;10383347;28;20293;-71
2024/03/06 09:34:45;;;;;;;21.43;16.57;;;11.60;43.80;;;;;;10384204;28;20722;-71
2024/03/06 09:39:49;;;;;;;19.27;16.00;;;11.70;43.70;;;;;;10385639;28;20279;-71
2024/03/06 09:44:53;;;;;;;22.47;17.57;;;11.80;43.80;;;;;;10384160;28;20875;-71
2024/03/06 09:49:57;;;;;;;22.83;17.73;;;11.80;43.90;;;;;;10383230;28;20234;-71
2024/03/06 09:55:02;;;;;;;20.97;16.13;;;11.90;43.60;;;;;;10386144;28;21033;-71
2024/03/06 10:00:11;;;;;;;19.90;16.57;;;12.00;43.60;;;;;;10384842;28;20288;-71
2024/03/06 10:05:26;;;;;;;18.97;16.40;;;12.10;43.40;;;;;;10381789;28;21008;-71
2024/03/06 10:10:30;;;;;;;18.60;15.20;;;12.10;43.10;;;;;;10381829;28;20236;-71
2024/03/06 10:15:36;;;;;;;19.20;15.63;;;12.10;43.40;;;;;;10351602;28;20242;-71
2024/03/06 10:20:40;;;;;;;20.77;16.47;;;12.20;42.90;;;;;;10339188;28;20230;-71
2024/03/06 10:25:45;;;;;;;19.90;16.03;;;12.30;43.00;;;;;;10343020;28;20226;-71
2024/03/06 10:30:50;;;;;;;22.13;17.40;;;12.40;43.10;;;;;;10343699;28;20280;-71
2024/03/06 10:35:53;;;;;;;19.27;16.73;;;12.40;42.90;;;;;;10336677;28;20309;-71
2024/03/06 10:40:57;;;;;;;18.53;15.93;;;12.50;43.00;;;;;;10337941;28;20230;-71
2024/03/06 10:46:07;;;;;;;20.87;15.80;;;12.60;42.90;;;;;;10342112;28;20281;-71
2024/03/06 10:51:13;;;;;;;20.90;15.60;;;12.70;42.30;;;;;;10339470;28;20258;-71
2024/03/06 10:56:19;;;;;;;19.07;16.30;;;12.80;42.40;;;;;;10338917;28;20742;-71
2024/03/06 11:01:25;;;;;;;18.00;15.73;;;12.80;42.40;;;;;;10346596;28;20230;-71
2024/03/06 11:06:28;;;;;;;20.20;16.13;;;13.00;42.60;;;;;;10349043;28;20229;-71
2024/03/06 11:11:32;;;;;;;18.07;15.67;;;13.00;42.60;;;;;;10341666;28;20666;-71
2024/03/06 11:16:57;;;;;;;18.37;15.53;;;13.10;42.70;;;;;;10361621;28;20422;-71
2024/03/06 11:22:01;;;;;;;18.43;14.90;;;13.10;42.00;;;;;;10346140;28;20226;-71
2024/03/06 11:27:07;;;;;;;17.63;15.30;;;13.20;42.70;;;;;;10345443;28;20570;-71
2024/03/06 11:32:13;;;;;;;19.50;15.07;;;13.20;42.40;;;;;;10341851;28;20244;-71
2024/03/06 11:37:22;;;;;;;17.53;15.00;;;13.30;41.80;;;;;;10340530;28;20230;-71
2024/03/06 11:42:35;;;;;;;18.67;15.57;;;13.30;41.30;;;;;;10345870;28;20305;-71
2024/03/06 11:47:59;;;;;;;17.80;15.90;;;13.40;41.50;;;;;;10341647;28;20244;-71
2024/03/06 11:53:05;;;;;;;19.67;16.57;;;13.40;41.10;;;;;;10338582;28;20712;-70
2024/03/06 11:58:11;;;;;;;17.27;15.37;;;13.40;41.50;;;;;;10341214;28;20712;-70
2024/03/06 12:03:16;;;;;;;19.43;15.37;;;13.40;41.50;;;;;;10343382;28;20230;-70
2024/03/06 12:08:20;;;;;;;16.63;13.93;;;13.40;41.50;;;;;;10346365;28;20720;-71
2024/03/06 12:13:24;;;;;;;17.23;15.20;;;13.40;41.70;;;;;;10350566;28;20230;-71
2024/03/06 12:18:29;;;;;;;20.93;16.27;;;13.40;41.20;;;;;;10345791;28;20241;-70
2024/03/06 12:23:33;;;;;;;17.13;13.80;;;13.50;41.00;;;;;;10352784;28;20707;-71
2024/03/06 12:28:36;;;;;;;16.47;13.70;;;13.50;41.10;;;;;;10351106;28;20254;-71
2024/03/06 12:33:41;;;;;;;17.00;14.63;;;13.50;41.00;;;;;;10350535;28;20320;-71
2024/03/06 12:38:45;;;;;;;17.53;14.17;;;13.50;40.60;;;;;;10347844;28;20738;-71
2024/03/06 12:43:48;;;;;;;15.87;14.17;;;13.50;41.00;;;;;;10348894;28;20218;-71
2024/03/06 12:48:54;;;;;;;16.43;14.20;;;13.50;40.70;;;;;;10349904;28;20223;-71
2024/03/06 12:53:57;;;;;;;15.40;13.17;;;13.50;40.40;;;;;;10349137;28;20320;-71
2024/03/06 12:59:00;;;;;;;16.40;13.37;;;13.60;40.90;;;;;;10352078;28;20716;-71
2024/03/06 13:04:06;;;;;;;15.50;12.93;;;13.60;40.70;;;;;;10347785;28;20345;-71
2024/03/06 13:09:11;;;;;;;14.13;12.63;;;13.70;40.40;;;;;;10348645;28;20222;-71
2024/03/06 13:14:14;;;;;;;15.07;13.27;;;13.70;40.60;;;;;;10347738;28;20317;-71
2024/03/06 13:19:19;;;;;;;16.80;13.53;;;13.80;40.60;;;;;;10332919;28;20222;-71
2024/03/06 13:24:22;;;;;;;15.40;12.60;;;13.80;40.20;;;;;;10345865;28;20249;-71
2024/03/06 13:29:25;;;;;;;15.60;13.53;;;13.80;40.70;;;;;;10352432;28;20320;-71
2024/03/06 13:34:31;;;;;;;16.23;14.10;;;13.90;40.40;;;;;;10380330;28;20720;-71
2024/03/06 13:39:34;;;;;;;16.90;14.13;;;13.90;39.90;;;;;;10366438;28;20600;-71
2024/03/06 13:44:38;;;;;;;15.70;14.00;;;13.80;40.00;;;;;;10339847;28;20232;-71
2024/03/06 13:49:43;;;;;;;16.50;14.03;;;13.50;40.10;;;;;;10340241;28;20254;-71
2024/03/06 13:54:47;;;;;;;16.13;14.47;;;13.30;40.20;;;;;;10348754;28;20244;-71
2024/03/06 13:59:50;;;;;;;16.70;15.00;;;13.10;40.50;;;;;;10343184;28;20276;-71
2024/03/06 14:04:55;;;;;;;17.37;15.57;;;12.90;40.80;;;;;;10342711;28;20230;-71
2024/03/06 14:09:58;;;;;;;18.97;16.37;;;12.80;41.10;;;;;;10336542;28;20345;-71
2024/03/06 14:15:12;;;;;;;16.77;15.03;;;12.70;41.20;;;;;;10343636;28;20225;-71
2024/03/06 14:20:17;;;;;;;17.40;15.70;;;12.50;41.60;;;;;;10352548;28;21011;-71
2024/03/06 14:25:21;;;;;;;17.60;15.53;;;12.40;42.00;;;;;;10342698;28;20217;-71
2024/03/06 14:30:24;;;;;;;17.90;15.53;;;12.30;42.00;;;;;;10335059;28;20586;-71
2024/03/06 14:35:29;;;;;;;17.90;16.10;;;12.20;41.90;;;;;;10336942;28;20614;-71
2024/03/06 14:40:33;;;;;;;19.07;17.03;;;12.10;41.80;;;;;;10373275;28;20257;-71
2024/03/06 14:45:41;;;;;;;17.33;15.47;;;12.10;41.80;;;;;;10376943;28;20230;-71
2024/03/06 14:50:45;;;;;;;17.97;15.53;;;12.00;41.70;;;;;;10373584;28;20226;-71
2024/03/06 14:55:50;;;;;;;17.67;15.77;;;11.90;41.70;;;;;;10380877;28;20228;-71
2024/03/06 15:00:53;;;;;;;19.70;16.10;;;11.90;41.60;;;;;;10380074;28;20249;-71
2024/03/06 15:05:58;;;;;;;18.80;15.60;;;11.80;41.60;;;;;;10375080;28;20229;-71
2024/03/06 15:11:02;;;;;;;20.03;16.70;;;11.70;41.60;;;;;;10375549;28;20699;-71
2024/03/06 15:16:08;;;;;;;19.10;16.57;;;11.70;41.80;;;;;;10377075;28;20336;-71
2024/03/06 15:21:12;;;;;;;18.80;16.37;;;11.60;42.00;;;;;;10372026;28;20229;-72
2024/03/06 15:26:16;;;;;;;19.00;16.87;;;11.60;42.10;;;;;;10373618;28;20715;-71
2024/03/06 15:31:19;;;;;;;19.53;16.90;;;11.50;42.00;;;;;;10373349;28;20283;-71
2024/03/06 15:36:24;;;;;;;19.40;16.53;;;11.50;42.10;;;;;;10373498;28;20230;-72
2024/03/06 15:41:27;;;;;;;25.80;21.53;;;11.60;42.10;;;;;;10379144;28;20274;-71
2024/03/06 15:46:33;;;;;;;26.23;21.27;;;11.50;42.20;;;;;;10384084;28;20237;-71
2024/03/06 15:51:38;;;;;;;36.43;26.73;;;11.50;42.20;;;;;;10384705;28;20226;-72
2024/03/06 15:56:41;;;;;;;23.90;18.67;;;11.40;42.30;;;;;;10343166;28;20238;-71
2024/03/06 16:01:45;;;;;;;23.17;17.23;;;11.40;42.40;;;;;;10343605;28;20222;-71
2024/03/06 16:06:50;;;;;;;20.17;17.37;;;11.40;42.50;;;;;;10342665;28;20230;-71
2024/03/06 16:11:53;;;;;;;19.17;16.67;;;11.30;42.70;;;;;;10343341;28;20228;-71
2024/03/06 16:16:58;;;;;;;19.53;16.97;;;11.30;42.80;;;;;;10341831;28;20288;-71
2024/03/06 16:22:03;;;;;;;19.07;17.00;;;11.40;42.80;;;;;;10346613;28;20297;-71
2024/03/06 16:27:06;;;;;;;19.47;16.53;;;11.40;42.90;;;;;;10379923;28;20249;-71
2024/03/06 16:32:10;;;;;;;19.30;17.30;;;11.30;42.60;;;;;;10377148;28;20240;-71
2024/03/06 16:37:14;;;;;;;21.97;18.13;;;11.30;42.70;;;;;;10382680;28;20703;-71
2024/03/06 16:42:18;;;;;;;21.27;18.93;;;11.30;42.90;;;;;;10377655;28;20226;-71
2024/03/06 16:47:21;;;;;;;20.77;17.47;;;11.40;42.60;;;;;;10367946;28;20234;-71
2024/03/06 16:52:26;;;;;;;20.27;17.47;;;11.50;42.60;;;;;;10336878;28;20815;-71
2024/03/06 16:57:29;;;;;;;19.07;16.53;;;11.60;42.70;;;;;;10333934;28;20230;-71
2024/03/06 17:02:32;;;;;;;20.43;18.13;;;11.60;42.60;;;;;;10341614;28;20222;-71
2024/03/06 17:07:37;;;;;;;20.00;17.33;;;11.70;42.50;;;;;;10333185;28;20694;-71
2024/03/06 17:12:40;;;;;;;20.67;18.27;;;11.70;42.40;;;;;;10338540;28;20226;-72
2024/03/06 17:17:44;;;;;;;20.03;17.40;;;11.80;42.20;;;;;;10338993;28;20312;-72
2024/03/06 17:22:50;;;;;;;20.70;18.37;;;11.80;42.30;;;;;;10341974;28;21117;-72
2024/03/06 17:27:53;;;;;;;19.27;17.20;;;11.70;42.50;;;;;;10338648;28;20234;-71
2024/03/06 17:32:56;;;;;;;19.40;16.67;;;11.70;42.40;;;;;;10334709;28;20230;-71
2024/03/06 17:38:01;;;;;;;19.57;16.77;;;11.80;42.20;;;;;;10337411;28;20322;-71
2024/03/06 17:43:04;;;;;;;18.03;15.40;;;11.80;42.40;;;;;;10375150;28;20226;-71
2024/03/06 17:48:08;;;;;;;20.03;16.50;;;11.80;42.10;;;;;;10377490;28;20329;-71
2024/03/06 17:53:13;;;;;;;19.93;17.83;;;11.80;42.20;;;;;;10376036;28;20249;-71
2024/03/06 17:58:16;;;;;;;19.73;17.43;;;11.70;42.40;;;;;;10374998;28;20755;-71
2024/03/06 18:03:22;;;;;;;21.50;16.83;;;11.70;42.50;;;;;;10376779;28;20710;-71
2024/03/06 18:08:29;;;;;;;27.77;22.70;;;11.70;42.40;;;;;;10371681;28;20221;-71
2024/03/06 18:13:32;;;;;;;21.53;18.10;;;11.80;42.60;;;;;;10369863;28;20305;-71
2024/03/06 18:18:35;;;;;;;19.40;16.47;;;11.80;42.30;;;;;;10379135;28;20226;-71
2024/03/06 18:23:40;;;;;;;18.13;16.23;;;11.70;42.30;;;;;;10374442;28;20225;-71
2024/03/06 18:28:44;;;;;;;20.70;18.50;;;11.70;42.50;;;;;;10377230;28;20234;-71
2024/03/06 18:33:47;;;;;;;19.80;17.67;;;11.60;42.40;;;;;;10383816;28;20242;-71
2024/03/06 18:38:52;;;;;;;25.10;21.87;;;11.50;42.60;;;;;;10381050;28;20233;-71
2024/03/06 18:43:55;;;;;;;19.53;16.93;;;11.50;42.80;;;;;;10382944;28;20235;-71
2024/03/06 18:48:58;;;;;;;18.93;16.90;;;11.50;42.40;;;;;;10380204;28;20225;-71
2024/03/06 18:54:04;;;;;;;19.30;17.30;;;11.50;42.40;;;;;;10380659;28;20722;-71
2024/03/06 18:59:08;;;;;;;17.83;15.83;;;11.40;42.70;;;;;;10372926;28;20236;-71
2024/03/06 19:04:11;;;;;;;18.83;16.83;;;11.30;42.70;;;;;;10367843;28;20230;-72
2024/03/06 19:09:16;;;;;;;18.53;16.67;;;11.20;43.00;;;;;;10369955;28;20230;-71
2024/03/06 19:14:20;;;;;;;17.57;15.30;;;11.20;43.30;;;;;;10371296;28;20218;-71
2024/03/06 19:19:23;;;;;;;19.17;17.10;;;11.20;43.20;;;;;;10372132;28;20290;-72
2024/03/06 19:24:28;;;;;;;19.17;17.07;;;11.30;43.10;;;;;;10371984;28;20325;-72
2024/03/06 19:29:32;;;;;;;18.07;16.20;;;11.30;43.10;;;;;;10373081;28;20230;-71
2024/03/06 19:34:36;;;;;;;19.07;16.97;;;11.40;43.00;;;;;;10382304;28;20225;-72
2024/03/06 19:39:41;;;;;;;18.43;16.53;;;11.40;43.00;;;;;;10379019;28;20300;-72
2024/03/06 19:44:44;;;;;;;19.70;17.63;;;11.40;43.00;;;;;;10382356;28;20305;-71
2024/03/06 19:49:48;;;;;;;19.03;17.00;;;11.50;42.80;;;;;;10379125;28;20233;-71
2024/03/06 19:54:53;;;;;;;18.67;16.77;;;11.50;42.70;;;;;;10384562;28;20253;-71
2024/03/06 19:59:56;;;;;;;20.47;18.27;;;11.50;42.50;;;;;;10383723;28;20238;-71
2024/03/06 20:05:05;;;;;;;23.70;21.20;;;11.40;43.00;;;;;;10380949;28;20236;-71
2024/03/06 20:10:10;;;;;;;17.10;15.40;;;11.30;42.20;;;;;;10377769;28;20233;-72
2024/03/06 20:15:14;;;;;;;17.43;15.63;;;11.30;42.60;;;;;;10381767;28;20313;-71
2024/03/06 20:20:17;;;;;;;19.10;17.10;;;11.20;42.50;;;;;;10382022;28;20333;-72
2024/03/06 20:25:21;;;;;;;19.70;17.67;;;11.20;42.50;;;;;;10381054;28;20222;-71
2024/03/06 20:30:25;;;;;;;19.17;17.10;;;11.20;42.30;;;;;;10385658;28;20235;-71
2024/03/06 20:35:28;;;;;;;21.27;18.97;;;11.10;42.10;;;;;;10392099;28;20230;-71
2024/03/06 20:40:33;;;;;;;20.03;18.03;;;10.90;42.00;;;;;;10386038;28;20311;-71
2024/03/06 20:45:38;;;;;;;16.63;14.97;;;10.70;42.40;;;;;;10385789;28;20245;-71
2024/03/06 20:50:41;;;;;;;18.77;16.73;;;10.50;42.20;;;;;;10386153;28;20230;-72
2024/03/06 20:55:47;;;;;;;18.33;16.40;;;10.50;42.50;;;;;;10391239;28;20292;-71
2024/03/06 21:00:51;;;;;;;17.83;15.93;;;10.50;42.50;;;;;;10388495;28;20225;-71
2024/03/06 21:05:55;;;;;;;16.37;14.67;;;10.40;42.10;;;;;;10383660;28;20277;-71
2024/03/06 21:11:00;;;;;;;15.30;13.70;;;10.40;42.10;;;;;;10387969;28;20334;-71
2024/03/06 21:16:04;;;;;;;12.30;11.00;;;10.30;42.00;;;;;;10385284;28;20229;-71
2024/03/06 21:21:07;;;;;;;11.97;10.77;;;10.20;41.90;;;;;;10385885;28;20728;-71
2024/03/06 21:26:12;;;;;;;15.57;14.03;;;10.20;42.00;;;;;;10390070;28;20229;-71
2024/03/06 21:31:15;;;;;;;14.07;12.67;;;10.20;41.80;;;;;;10391101;28;20237;-71
2024/03/06 21:36:18;;;;;;;13.70;12.30;;;10.20;41.60;;;;;;10385777;28;20228;-71
2024/03/06 21:41:24;;;;;;;14.80;13.30;;;10.20;41.40;;;;;;10357581;28;20328;-72
2024/03/06 21:46:27;;;;;;;14.47;12.97;;;10.10;41.60;;;;;;10348027;28;20767;-71
2024/03/06 21:51:31;;;;;;;15.03;13.53;;;10.10;41.60;;;;;;10349391;28;20244;-71
2024/03/06 21:56:35;;;;;;;12.40;11.20;;;10.00;41.20;;;;;;10347168;28;20230;-71
2024/03/06 22:01:39;;;;;;;14.53;13.13;;;9.90;42.20;;;;;;10349491;28;20235;-71
2024/03/06 22:06:43;;;;;;;13.17;11.87;;;9.80;42.30;;;;;;10341138;28;20227;-71
2024/03/06 22:11:47;;;;;;;14.43;12.93;;;9.80;42.30;;;;;;10342037;28;20577;-71
2024/03/06 22:16:51;;;;;;;12.93;11.63;;;9.70;42.30;;;;;;10350584;28;20337;-71
2024/03/06 22:21:54;;;;;;;11.00;10.00;;;9.60;42.40;;;;;;10350518;28;20308;-71
2024/03/06 22:26:59;;;;;;;8.83;8.03;;;9.60;42.10;;;;;;10344109;28;20241;-71
2024/03/06 22:32:03;;;;;;;7.57;6.93;;;9.60;41.90;;;;;;10364573;28;20226;-71
2024/03/06 22:37:06;;;;;;;7.50;6.80;;;9.50;41.80;;;;;;10346630;28;20249;-71
2024/03/06 22:42:11;;;;;;;7.60;6.93;;;9.50;41.70;;;;;;10350792;28;20893;-71
2024/03/06 22:47:15;;;;;;;6.77;6.27;;;9.50;41.50;;;;;;10358664;28;20692;-71
2024/03/06 22:52:18;;;;;;;6.63;6.13;;;9.40;41.40;;;;;;10361605;28;22682;-71
2024/03/06 22:57:23;;;;;;;5.23;4.83;;;9.30;41.40;;;;;;10346429;28;21010;-71
2024/03/06 23:02:26;;;;;;;9.13;8.23;;;9.20;41.40;;;;;;10350504;28;20263;-71
2024/03/06 23:07:29;;;;;;;7.73;7.10;;;9.10;41.00;;;;;;10344138;28;20285;-71
2024/03/06 23:12:35;;;;;;;6.67;6.17;;;8.80;40.80;;;;;;10344232;28;20241;-71
2024/03/06 23:17:38;;;;;;;6.67;6.17;;;8.40;41.30;;;;;;10343125;28;20237;-71
2024/03/06 23:22:42;;;;;;;7.50;6.90;;;8.20;41.60;;;;;;10343372;28;20700;-71
2024/03/06 23:27:47;;;;;;;48.03;8.17;;;8.00;41.80;;;;;;10347826;28;20229;-71
2024/03/06 23:32:51;;;;;;;26.17;8.80;;;7.80;42.00;;;;;;10380376;28;20595;-71
2024/03/06 23:37:54;;;;;;;15.37;7.97;;;7.70;42.10;;;;;;10385737;28;20279;-71
2024/03/06 23:42:59;;;;;;;29.67;7.70;;;7.60;42.40;;;;;;10382300;28;20749;-71
2024/03/06 23:48:02;;;;;;;8.93;8.23;;;7.50;42.50;;;;;;10382331;28;20258;-70
2024/03/06 23:53:05;;;;;;;8.27;7.60;;;7.40;42.50;;;;;;10384990;28;20236;-71
2024/03/06 23:58:10;;;;;;;8.90;8.20;;;7.40;42.70;;;;;;10383196;28;20229;-71
